createdAt,value
2023-04-09T00:03:33.050Z,65.10
2023-04-09T00:08:36.726Z,65.30
2023-04-09T00:13:40.248Z,65.30
2023-04-09T00:18:45.587Z,65.30
2023-04-09T00:23:49.210Z,65.40
2023-04-09T00:28:52.862Z,65.40
2023-04-09T00:33:58.122Z,65.50
2023-04-09T00:39:01.492Z,65.60
2023-04-09T00:44:05.567Z,65.60
2023-04-09T00:49:10.379Z,65.60
2023-04-09T00:54:13.982Z,65.70
2023-04-09T00:59:17.434Z,65.60
2023-04-09T01:04:22.833Z,65.60
2023-04-09T01:09:34.735Z,65.50
2023-04-09T01:14:43.219Z,65.50
2023-04-09T01:19:55.372Z,65.60
2023-04-09T01:25:05.623Z,65.70
2023-04-09T01:30:11.833Z,65.70
2023-04-09T01:35:15.788Z,65.60
2023-04-09T01:40:19.618Z,65.70
2023-04-09T01:45:24.871Z,65.90
2023-04-09T01:50:28.625Z,65.90
2023-04-09T01:55:32.106Z,66.00
2023-04-09T02:00:40.709Z,66.40
2023-04-09T02:05:50.312Z,66.90
2023-04-09T02:10:59.082Z,67.20
2023-04-09T02:16:06.057Z,67.70
2023-04-09T02:21:10.128Z,68.20
2023-04-09T02:26:13.532Z,68.30
2023-04-09T02:31:18.593Z,68.50
2023-04-09T02:36:22.315Z,68.50
2023-04-09T02:41:25.970Z,68.70
2023-04-09T02:46:30.893Z,68.80
2023-04-09T02:51:35.908Z,69.50
2023-04-09T02:56:39.260Z,69.50
2023-04-09T03:01:44.119Z,69.50
2023-04-09T03:06:47.592Z,69.70
2023-04-09T03:11:50.999Z,69.80
2023-04-09T03:16:55.759Z,70.00
2023-04-09T03:21:59.762Z,70.20
2023-04-09T03:27:03.162Z,70.10
2023-04-09T03:32:08.031Z,70.10
2023-04-09T03:37:11.392Z,70.20
2023-04-09T03:42:14.777Z,70.20
2023-04-09T03:47:19.794Z,70.20
2023-04-09T03:52:23.502Z,70.10
2023-04-09T03:57:26.989Z,70.00
2023-04-09T04:02:33.825Z,69.80
2023-04-09T04:07:37.481Z,70.00
2023-04-09T04:12:40.926Z,70.20
2023-04-09T04:17:45.941Z,70.10
2023-04-09T04:22:49.687Z,69.90
2023-04-09T04:27:54.291Z,69.80
2023-04-09T04:32:59.124Z,69.80
2023-04-09T04:38:02.638Z,69.60
2023-04-09T04:43:05.995Z,69.80
2023-04-09T04:48:10.776Z,70.20
2023-04-09T04:53:14.385Z,70.20
2023-04-09T04:58:17.919Z,70.50
2023-04-09T05:03:23.246Z,70.60
2023-04-09T05:08:28.038Z,70.90
2023-04-09T05:13:31.415Z,71.20
2023-04-09T05:18:36.141Z,71.40
2023-04-09T05:23:40.158Z,71.90
2023-04-09T05:28:43.592Z,72.10
2023-04-09T05:33:48.359Z,72.30
2023-04-09T05:38:52.014Z,72.40
2023-04-09T05:43:55.942Z,72.60
2023-04-09T05:49:00.952Z,73.10
2023-04-09T05:54:04.898Z,73.90
2023-04-09T05:59:08.586Z,74.80
2023-04-09T06:04:13.722Z,75.00
2023-04-09T06:09:17.209Z,75.40
2023-04-09T06:14:20.719Z,75.50
2023-04-09T06:19:25.663Z,75.90
2023-04-09T06:24:29.738Z,75.90
2023-04-09T06:29:33.147Z,76.30
2023-04-09T06:34:37.903Z,76.40
2023-04-09T06:39:47.572Z,78.40
2023-04-09T06:45:01.667Z,78.40
2023-04-09T06:50:07.564Z,79.00
2023-04-09T06:55:11.547Z,79.80
2023-04-09T07:00:15.818Z,80.00
2023-04-09T07:05:20.714Z,80.40
2023-04-09T07:10:24.084Z,80.40
2023-04-09T07:15:27.564Z,80.60
2023-04-09T07:20:32.327Z,80.70
2023-04-09T07:25:36.296Z,80.30
2023-04-09T07:30:41.238Z,80.60
2023-04-09T07:35:46.974Z,80.80
2023-04-09T07:40:50.682Z,80.80
2023-04-09T07:45:54.070Z,81.00
2023-04-09T07:50:58.824Z,81.20
2023-04-09T07:56:02.221Z,81.70
2023-04-09T08:01:06.183Z,82.20
2023-04-09T08:06:10.884Z,82.20
2023-04-09T08:11:14.260Z,81.60
2023-04-09T08:16:18.001Z,81.30
2023-04-09T08:21:23.092Z,81.30
2023-04-09T08:26:27.394Z,82.30
2023-04-09T08:31:30.822Z,81.00
2023-04-09T08:36:36.099Z,81.20
2023-04-09T08:41:43.950Z,81.10
2023-04-09T08:46:47.373Z,81.30
2023-04-09T08:51:52.242Z,81.60
2023-04-09T08:56:57.583Z,81.60
2023-04-09T09:02:11.468Z,81.80
2023-04-09T09:07:17.320Z,81.90
2023-04-09T09:12:38.538Z,81.80
2023-04-09T09:17:55.969Z,81.70
2023-04-09T09:23:01.548Z,81.40
2023-04-09T09:28:09.950Z,81.20
2023-04-09T09:33:13.805Z,81.40
2023-04-09T09:38:19.032Z,80.80
2023-04-09T09:43:22.573Z,81.10
2023-04-09T09:48:27.880Z,80.90
2023-04-09T09:53:36.898Z,80.90
2023-04-09T09:58:46.321Z,80.80
2023-04-09T10:03:52.840Z,80.60
2023-04-09T10:08:59.639Z,81.00
2023-04-09T10:14:03.835Z,81.20
2023-04-09T10:19:15.787Z,81.20
2023-04-09T10:24:20.673Z,81.30
2023-04-09T10:29:30.030Z,81.30
2023-04-09T10:34:36.969Z,81.30
2023-04-09T10:39:45.704Z,81.40
2023-04-09T10:45:06.218Z,81.60
2023-04-09T10:50:17.689Z,81.30
2023-04-09T10:55:44.516Z,81.40
2023-04-09T11:00:51.018Z,81.20
2023-04-09T11:05:59.334Z,81.40
2023-04-09T11:11:04.466Z,81.70
2023-04-09T11:16:08.066Z,82.00
2023-04-09T11:21:13.467Z,82.30
2023-04-09T11:26:18.431Z,82.60
2023-04-09T11:31:29.316Z,82.20
2023-04-09T11:36:35.805Z,82.30
2023-04-09T11:41:40.722Z,82.80
2023-04-09T11:46:44.903Z,83.10
2023-04-09T11:51:48.474Z,82.60
2023-04-09T11:56:56.108Z,82.40
2023-04-09T12:02:00.209Z,82.50
2023-04-09T12:07:03.801Z,82.70
2023-04-09T12:12:11.401Z,82.80
2023-04-09T12:17:15.003Z,82.50
2023-04-09T12:22:18.548Z,82.10
2023-04-09T12:27:23.273Z,82.60
2023-04-09T12:32:28.849Z,82.80
2023-04-09T12:37:32.260Z,82.90
2023-04-09T12:42:36.974Z,82.90
2023-04-09T12:47:41.231Z,83.20
2023-04-09T12:52:45.581Z,83.30
2023-04-09T12:57:53.148Z,83.30
2023-04-09T13:02:56.746Z,83.40
2023-04-09T13:08:00.242Z,83.70
2023-04-09T13:13:05.361Z,83.90
2023-04-09T13:18:08.813Z,83.70
2023-04-09T13:23:12.192Z,83.70
2023-04-09T13:28:17.012Z,83.60
2023-04-09T13:33:20.601Z,83.50
2023-04-09T13:38:24.108Z,83.40
2023-04-09T13:43:29.302Z,83.50
2023-04-09T13:48:32.697Z,83.30
2023-04-09T13:53:36.269Z,83.00
2023-04-09T13:58:41.778Z,82.90
2023-04-09T14:03:45.243Z,82.90
2023-04-09T14:08:48.803Z,82.90
2023-04-09T14:13:53.645Z,83.00
2023-04-09T14:18:57.390Z,82.90
2023-04-09T14:24:01.161Z,82.70
2023-04-09T14:29:06.048Z,82.40
2023-04-09T14:34:10.387Z,82.20
2023-04-09T14:39:13.763Z,82.20
2023-04-09T14:44:18.794Z,82.20
2023-04-09T14:49:22.431Z,82.30
2023-04-09T14:54:25.858Z,82.30
2023-04-09T14:59:30.860Z,82.60
2023-04-09T15:04:34.422Z,82.90
2023-04-09T15:09:37.897Z,82.90
2023-04-09T15:14:42.635Z,82.90
2023-04-09T15:19:46.025Z,82.90
2023-04-09T15:24:50.485Z,82.80
2023-04-09T15:29:55.680Z,82.90
2023-04-09T15:34:59.550Z,83.70
2023-04-09T15:40:05.614Z,82.90
2023-04-09T15:45:11.586Z,82.80
2023-04-09T15:50:15.524Z,83.70
2023-04-09T15:55:19.416Z,82.90
2023-04-09T16:00:24.608Z,83.60
2023-04-09T16:05:27.979Z,83.60
2023-04-09T16:10:32.183Z,83.50
2023-04-09T16:15:37.404Z,83.50
2023-04-09T16:20:41.118Z,83.50
2023-04-09T16:25:44.519Z,83.20
2023-04-09T16:30:50.368Z,83.00
2023-04-09T16:35:53.771Z,83.50
2023-04-09T16:40:57.542Z,83.70
2023-04-09T16:46:02.615Z,83.90
2023-04-09T16:51:06.473Z,83.80
2023-04-09T16:56:10.265Z,83.90
2023-04-09T17:01:15.011Z,84.10
2023-04-09T17:06:18.485Z,83.80
2023-04-09T17:11:23.662Z,83.80
2023-04-09T17:16:28.803Z,83.80
2023-04-09T17:21:32.154Z,83.80
2023-04-09T17:26:35.590Z,83.60
2023-04-09T17:31:40.536Z,83.30
2023-04-09T17:36:44.512Z,83.20
2023-04-09T17:41:47.904Z,83.50
2023-04-09T17:46:52.958Z,84.00
2023-04-09T17:51:56.450Z,84.20
2023-04-09T17:56:59.862Z,84.10
2023-04-09T18:02:05.136Z,84.20
2023-04-09T18:07:08.642Z,84.10
2023-04-09T18:12:12.355Z,84.00
2023-04-09T18:17:17.428Z,84.00
2023-04-09T18:22:20.870Z,84.20
2023-04-09T18:27:24.355Z,84.20
2023-04-09T18:32:29.450Z,84.90
2023-04-09T18:37:34.936Z,85.10
2023-04-09T18:42:38.308Z,85.10
2023-04-09T18:47:43.396Z,84.90
2023-04-09T18:52:46.848Z,85.50
2023-04-09T18:57:50.258Z,84.20
2023-04-09T19:02:55.170Z,84.00
2023-04-09T19:07:59.828Z,83.90
2023-04-09T19:13:03.408Z,83.80
2023-04-09T19:18:08.126Z,83.70
2023-04-09T19:23:11.496Z,83.60
2023-04-09T19:28:14.886Z,83.40
2023-04-09T19:33:20.692Z,83.50
2023-04-09T19:38:25.211Z,84.00
2023-04-09T19:43:28.637Z,83.90
2023-04-09T19:48:33.395Z,84.20
2023-04-09T19:53:37.864Z,84.20
2023-04-09T19:58:42.850Z,84.20
2023-04-09T20:03:48.776Z,84.00
2023-04-09T20:08:53.199Z,84.10
2023-04-09T20:13:57.279Z,84.20
2023-04-09T20:19:02.041Z,84.10
2023-04-09T20:24:06.780Z,83.90
2023-04-09T20:29:12.574Z,83.90
2023-04-09T20:34:17.445Z,83.80
2023-04-09T20:39:22.069Z,84.00
2023-04-09T20:44:25.558Z,83.80
2023-04-09T20:49:30.262Z,83.60
2023-04-09T20:54:34.003Z,83.70
2023-04-09T20:59:37.635Z,83.50
2023-04-09T21:04:42.385Z,84.00
2023-04-09T21:09:46.051Z,84.60
2023-04-09T21:14:49.476Z,84.60
2023-04-09T21:19:54.222Z,84.80
2023-04-09T21:24:57.620Z,84.30
2023-04-09T21:30:01.018Z,84.80
2023-04-09T21:35:06.579Z,85.00
2023-04-09T21:40:11.022Z,84.60
2023-04-09T21:45:14.710Z,84.40
2023-04-09T21:50:19.666Z,84.50
2023-04-09T21:55:23.258Z,84.50
2023-04-09T22:00:26.662Z,84.40
2023-04-09T22:05:34.266Z,84.30
2023-04-09T22:10:37.951Z,84.10
2023-04-09T22:15:41.956Z,84.00
2023-04-09T22:20:47.151Z,83.70
2023-04-09T22:25:50.988Z,83.60
2023-04-09T22:30:54.602Z,84.40
2023-04-09T22:35:59.782Z,83.30
2023-04-09T22:41:03.842Z,83.40
2023-04-09T22:46:07.318Z,83.40
2023-04-09T22:51:12.845Z,83.20
2023-04-09T22:56:16.267Z,84.20
2023-04-09T23:01:22.234Z,83.00
2023-04-09T23:06:27.344Z,83.10
2023-04-09T23:11:30.760Z,83.50
2023-04-09T23:16:34.352Z,84.00
2023-04-09T23:21:39.430Z,84.60
2023-04-09T23:26:42.943Z,85.10
2023-04-09T23:31:46.502Z,85.40
2023-04-09T23:36:51.727Z,85.70
2023-04-09T23:41:55.639Z,85.20
2023-04-09T23:46:59.356Z,84.90
2023-04-09T23:52:04.761Z,84.60
2023-04-09T23:57:08.377Z,84.40
